Time;durP1;ratioP1;P1;durP2;ratioP2;P2;SDS_P1;SDS_P2;PMS_P1;PMS_P2;Temp;Humidity;BMP_temperature;BMP_pressure;BME280_temperature;BME280_humidity;BME280_pressure;Samples;Min_cycle;Max_cycle;Signal;HPM_P1;HPM_P2
2022/05/07 00:02:00;;;;;;;19.75;12.18;;;9.60;99.90;;;;;;5219365;28;20021;-76
2022/05/07 00:04:31;;;;;;;20.38;11.75;;;9.50;99.90;;;;;;5224171;28;20041;-76
2022/05/07 00:07:04;;;;;;;20.65;13.27;;;9.50;99.90;;;;;;5225256;28;20029;-76
2022/05/07 00:09:35;;;;;;;21.85;12.73;;;9.50;99.90;;;;;;5209381;28;20401;-76
2022/05/07 00:12:07;;;;;;;18.65;10.52;;;9.40;99.90;;;;;;5221071;28;20017;-76
2022/05/07 00:14:38;;;;;;;26.92;14.15;;;9.30;99.90;;;;;;5225104;28;20080;-76
2022/05/07 00:19:58;;;;;;;14.73;9.48;;;9.20;99.90;;;;;;5217091;28;20120;-76
2022/05/07 00:22:29;;;;;;;17.02;10.65;;;9.00;99.90;;;;;;5207719;28;20116;-76
2022/05/07 00:24:59;;;;;;;19.15;12.27;;;9.10;99.90;;;;;;5207240;28;20034;-76
2022/05/07 00:27:30;;;;;;;18.52;10.85;;;8.90;99.90;;;;;;5206268;28;20057;-76
2022/05/07 00:30:01;;;;;;;19.00;10.48;;;9.30;99.90;;;;;;5207303;28;20112;-76
2022/05/07 00:32:32;;;;;;;20.48;11.48;;;9.00;99.90;;;;;;5207377;28;20028;-76
2022/05/07 00:35:03;;;;;;;23.23;11.55;;;9.10;99.90;;;;;;5207285;28;20385;-76
2022/05/07 00:37:35;;;;;;;16.90;10.00;;;8.90;99.90;;;;;;5207354;28;20056;-76
2022/05/07 00:40:08;;;;;;;16.02;9.52;;;9.30;99.90;;;;;;5206893;28;20033;-75
2022/05/07 00:42:39;;;;;;;14.18;8.85;;;9.30;99.90;;;;;;5207090;28;20045;-75
2022/05/07 00:45:10;;;;;;;15.20;9.13;;;9.40;99.90;;;;;;5207150;28;20410;-75
2022/05/07 00:47:40;;;;;;;15.55;9.88;;;9.60;99.90;;;;;;5207456;28;20044;-75
2022/05/07 00:53:01;;;;;;;25.15;13.25;;;9.50;99.90;;;;;;5207226;28;20434;-75
2022/05/07 00:55:32;;;;;;;23.23;13.00;;;9.60;99.90;;;;;;5206649;28;20025;-75
2022/05/07 00:58:03;;;;;;;25.90;14.23;;;9.50;99.90;;;;;;5209124;28;20122;-75
2022/05/07 01:00:34;;;;;;;15.25;10.45;;;9.50;99.90;;;;;;5206713;28;20037;-75
2022/05/07 01:03:05;;;;;;;23.05;12.35;;;9.20;99.90;;;;;;5205658;28;20033;-76
2022/05/07 01:05:36;;;;;;;18.27;9.73;;;9.30;99.90;;;;;;5206837;28;20092;-76
2022/05/07 01:08:11;;;;;;;16.52;10.10;;;9.20;99.90;;;;;;5207988;28;20049;-75
2022/05/07 01:10:42;;;;;;;16.05;9.95;;;9.60;99.90;;;;;;5215960;28;20479;-75
2022/05/07 01:13:13;;;;;;;15.93;10.25;;;9.40;99.90;;;;;;5216630;28;20724;-75
2022/05/07 01:15:53;;;;;;;15.82;11.05;;;9.40;99.90;;;;;;5226050;28;20108;-75
2022/05/07 01:18:24;;;;;;;17.10;10.50;;;9.20;99.90;;;;;;5227482;28;20397;-75
2022/05/07 01:20:55;;;;;;;16.77;11.73;;;9.20;99.90;;;;;;5220110;28;20111;-75
2022/05/07 01:23:27;;;;;;;17.42;10.85;;;9.30;99.90;;;;;;5224670;28;20045;-75
2022/05/07 01:25:59;;;;;;;13.70;9.95;;;9.30;99.90;;;;;;5226994;28;20492;-74
2022/05/07 01:28:29;;;;;;;19.23;10.40;;;9.30;99.90;;;;;;5226850;28;20064;-76
2022/05/07 01:31:00;;;;;;;13.35;8.52;;;8.90;99.90;;;;;;5227029;28;20027;-76
2022/05/07 01:33:33;;;;;;;13.18;9.48;;;8.90;99.90;;;;;;5223085;28;20025;-76
2022/05/07 01:36:11;;;;;;;11.60;8.93;;;8.90;99.90;;;;;;5219297;28;20115;-76
2022/05/07 01:38:42;;;;;;;14.43;9.48;;;9.20;99.90;;;;;;5206003;28;20052;-76
2022/05/07 01:41:13;;;;;;;18.23;9.00;;;8.90;99.90;;;;;;5206486;28;20022;-77
2022/05/07 01:43:43;;;;;;;16.27;10.18;;;8.90;99.90;;;;;;5206415;28;20504;-77
2022/05/07 01:49:04;;;;;;;25.00;16.17;;;9.00;99.90;;;;;;5227191;28;20029;-77
2022/05/07 01:51:35;;;;;;;20.38;13.15;;;9.00;99.90;;;;;;5226942;28;20469;-76
2022/05/07 01:54:08;;;;;;;21.80;13.65;;;9.30;99.90;;;;;;5223835;28;20036;-76
2022/05/07 01:56:39;;;;;;;23.48;13.70;;;9.10;99.90;;;;;;5206614;28;20029;-76
2022/05/07 01:59:10;;;;;;;20.15;12.90;;;9.10;99.90;;;;;;5206321;28;20127;-76
2022/05/07 02:01:40;;;;;;;21.85;13.75;;;9.00;99.90;;;;;;5209425;28;20069;-75
2022/05/07 02:04:11;;;;;;;26.02;13.55;;;9.10;99.90;;;;;;5210061;28;20462;-76
2022/05/07 02:06:42;;;;;;;21.38;13.45;;;8.90;99.90;;;;;;5209814;28;20342;-76
2022/05/07 02:09:13;;;;;;;20.52;11.95;;;9.00;99.90;;;;;;5210087;28;20373;-76
2022/05/07 02:11:44;;;;;;;21.98;12.68;;;9.00;99.90;;;;;;5210063;28;20029;-76
2022/05/07 02:14:15;;;;;;;20.63;12.82;;;8.80;99.90;;;;;;5209946;28;20036;-76
2022/05/07 02:16:46;;;;;;;19.10;13.25;;;8.80;99.90;;;;;;5210123;28;20453;-76
2022/05/07 02:19:17;;;;;;;18.27;11.85;;;8.70;99.90;;;;;;5209873;28;20025;-76
2022/05/07 02:21:47;;;;;;;17.98;11.98;;;9.20;99.90;;;;;;5209789;28;20021;-76
2022/05/07 02:24:18;;;;;;;19.98;11.68;;;9.00;99.90;;;;;;5210131;28;20036;-77
2022/05/07 02:26:49;;;;;;;17.73;11.45;;;9.50;99.90;;;;;;5230291;28;20455;-76
2022/05/07 02:29:20;;;;;;;17.23;12.05;;;9.60;99.90;;;;;;5230388;28;20052;-76
2022/05/07 02:32:06;;;;;;;19.88;12.70;;;9.60;99.90;;;;;;5230349;28;20092;-76
2022/05/07 02:34:37;;;;;;;21.80;12.32;;;9.60;99.90;;;;;;5217119;28;20026;-76
2022/05/07 02:37:08;;;;;;;15.85;11.18;;;9.70;99.90;;;;;;5209641;28;20103;-76
2022/05/07 02:39:39;;;;;;;21.55;13.23;;;9.60;99.90;;;;;;5209564;28;20389;-76
2022/05/07 02:42:55;;;;;;;22.17;14.35;;;9.50;99.90;;;;;;5210487;28;20021;-76
2022/05/07 02:45:01;;;;;;;25.40;14.93;;;9.70;99.90;;;;;;5225982;28;20127;-76
2022/05/07 02:47:37;;;;;;;23.23;13.93;;;9.80;99.90;;;;;;5229836;28;20078;-76
2022/05/07 02:50:10;;;;;;;21.08;13.80;;;9.90;99.90;;;;;;5229891;28;20449;-76
2022/05/07 02:52:41;;;;;;;23.88;14.18;;;9.80;99.90;;;;;;5227943;28;20025;-76
2022/05/07 02:55:12;;;;;;;24.60;14.73;;;9.80;99.90;;;;;;5229278;28;20025;-76
2022/05/07 02:57:43;;;;;;;31.63;15.65;;;9.90;99.90;;;;;;5229649;28;20370;-76
2022/05/07 03:00:15;;;;;;;29.73;17.38;;;10.10;99.90;;;;;;5229849;28;20033;-76
2022/05/07 03:02:47;;;;;;;31.85;17.13;;;10.10;99.90;;;;;;5224570;28;20026;-75
2022/05/07 03:05:17;;;;;;;25.30;15.15;;;10.30;99.90;;;;;;5208877;28;20040;-76
2022/05/07 03:07:48;;;;;;;28.23;15.75;;;10.30;99.90;;;;;;5208952;28;20100;-76
2022/05/07 03:10:19;;;;;;;23.27;15.02;;;10.40;99.90;;;;;;5209105;28;20041;-76
2022/05/07 03:12:50;;;;;;;24.48;15.48;;;10.40;99.90;;;;;;5219616;28;20485;-76
2022/05/07 03:15:21;;;;;;;23.13;14.95;;;10.40;99.90;;;;;;5208884;28;20385;-76
2022/05/07 03:17:52;;;;;;;22.45;13.65;;;10.30;99.90;;;;;;5208804;28;20021;-76
2022/05/07 03:20:23;;;;;;;25.90;15.10;;;10.30;99.90;;;;;;5208819;28;20053;-76
2022/05/07 03:22:53;;;;;;;24.05;14.98;;;10.50;99.90;;;;;;5219063;28;20060;-76
2022/05/07 03:25:24;;;;;;;25.90;15.80;;;10.40;99.90;;;;;;5250012;28;20424;-76
2022/05/07 03:27:55;;;;;;;25.73;15.00;;;10.50;99.90;;;;;;5249667;28;20051;-76
2022/05/07 03:43:15;;;;;;;23.48;15.95;;;10.60;99.90;;;;;;5287354;27;20420;-77
2022/05/07 03:45:46;;;;;;;25.33;15.13;;;10.60;99.90;;;;;;5287374;28;20085;-70
2022/05/07 03:48:17;;;;;;;26.30;15.02;;;10.70;99.90;;;;;;5283763;28;20042;-71
2022/05/07 03:50:48;;;;;;;27.85;14.50;;;10.80;99.90;;;;;;5286044;28;20370;-71
2022/05/07 03:53:30;;;;;;;24.13;14.80;;;10.90;99.90;;;;;;5286985;28;20043;-70
2022/05/07 03:56:06;;;;;;;28.50;14.77;;;11.10;99.90;;;;;;5286620;28;20411;-72
2022/05/07 03:58:37;;;;;;;25.90;15.93;;;11.10;99.90;;;;;;5265855;28;20120;-77
2022/05/07 04:01:08;;;;;;;29.27;17.58;;;11.10;99.90;;;;;;5284687;28;20107;-71
2022/05/07 04:03:39;;;;;;;25.52;16.95;;;11.00;99.90;;;;;;5265490;28;20467;-77
2022/05/07 04:06:10;;;;;;;32.30;17.73;;;11.10;99.90;;;;;;5265606;28;20095;-76
2022/05/07 04:08:40;;;;;;;36.35;20.63;;;11.10;99.90;;;;;;5286198;28;20111;-77
2022/05/07 04:11:11;;;;;;;43.20;21.67;;;11.20;99.90;;;;;;5285983;28;20115;-77
2022/05/07 04:13:42;;;;;;;40.30;20.55;;;11.10;99.90;;;;;;5275184;28;20471;-78
2022/05/07 04:16:13;;;;;;;38.60;19.83;;;11.10;99.90;;;;;;5264664;28;20480;-77
2022/05/07 04:18:44;;;;;;;31.60;18.38;;;11.10;99.90;;;;;;5286166;28;20505;-77
2022/05/07 04:21:15;;;;;;;26.95;15.68;;;11.20;99.90;;;;;;5284969;28;20025;-77
2022/05/07 04:23:45;;;;;;;25.33;13.90;;;11.30;99.90;;;;;;5285362;28;20027;-77
2022/05/07 04:26:16;;;;;;;25.02;14.13;;;11.50;99.90;;;;;;5286261;28;20023;-78
2022/05/07 04:28:47;;;;;;;27.30;13.55;;;11.50;99.90;;;;;;5286479;28;20110;-78
2022/05/07 04:31:18;;;;;;;26.02;13.88;;;11.70;99.90;;;;;;5283946;28;20032;-78
2022/05/07 04:33:49;;;;;;;24.27;14.00;;;11.80;99.90;;;;;;5286270;28;20020;-76
2022/05/07 04:36:20;;;;;;;21.42;13.52;;;11.70;99.90;;;;;;5286490;28;20027;-75
2022/05/07 04:38:51;;;;;;;21.25;12.40;;;11.70;99.90;;;;;;5286076;28;20024;-77
2022/05/07 04:41:21;;;;;;;19.10;12.27;;;11.70;99.90;;;;;;5281851;28;20052;-76
2022/05/07 04:43:52;;;;;;;24.90;12.60;;;11.70;99.90;;;;;;5273648;28;20039;-76
2022/05/07 04:46:24;;;;;;;21.55;12.73;;;11.90;99.90;;;;;;5271866;28;20032;-76
2022/05/07 04:48:54;;;;;;;22.63;13.30;;;11.90;99.90;;;;;;5272092;28;20111;-76
2022/05/07 04:51:25;;;;;;;20.45;12.63;;;11.90;99.90;;;;;;5262975;28;20126;-76
2022/05/07 04:53:56;;;;;;;22.10;12.57;;;11.90;99.90;;;;;;5269182;28;20052;-76
2022/05/07 04:56:28;;;;;;;17.75;11.15;;;12.00;99.90;;;;;;5272029;28;20050;-71
2022/05/07 04:58:59;;;;;;;19.45;12.02;;;12.30;99.90;;;;;;5270586;28;20030;-73
2022/05/07 05:01:30;;;;;;;17.48;11.30;;;12.30;99.90;;;;;;5271370;28;20111;-76
2022/05/07 05:04:00;;;;;;;15.20;10.77;;;12.30;99.90;;;;;;5270951;28;20032;-76
2022/05/07 05:06:31;;;;;;;18.08;12.13;;;12.40;99.90;;;;;;5271747;28;20471;-77
2022/05/07 05:09:04;;;;;;;16.50;9.70;;;12.30;99.90;;;;;;5271845;28;20028;-76
2022/05/07 05:11:37;;;;;;;19.80;12.02;;;12.40;99.90;;;;;;5271312;28;20060;-76
2022/05/07 05:16:57;;;;;;;19.08;11.80;;;12.50;99.90;;;;;;5271576;28;20073;-76
2022/05/07 05:19:28;;;;;;;16.75;10.80;;;12.40;99.90;;;;;;5264835;28;20016;-76
2022/05/07 05:21:59;;;;;;;20.27;11.10;;;12.50;99.90;;;;;;5250573;28;20032;-75
2022/05/07 05:24:29;;;;;;;18.17;10.75;;;12.80;99.90;;;;;;5268484;28;20028;-74
2022/05/07 05:27:00;;;;;;;16.05;9.98;;;12.90;99.90;;;;;;5271369;28;20072;-76
2022/05/07 05:29:32;;;;;;;16.40;9.65;;;12.90;99.90;;;;;;5270361;28;20407;-75
2022/05/07 05:32:03;;;;;;;16.25;10.50;;;12.80;99.90;;;;;;5270923;28;20366;-76
2022/05/07 05:34:34;;;;;;;17.95;11.07;;;12.70;99.90;;;;;;5270716;28;20097;-76
2022/05/07 05:37:05;;;;;;;21.13;11.48;;;12.50;99.90;;;;;;5270927;28;20474;-76
2022/05/07 05:39:36;;;;;;;18.73;10.73;;;12.50;99.90;;;;;;5269961;28;20012;-75
2022/05/07 05:42:07;;;;;;;15.77;10.25;;;12.40;99.90;;;;;;5269490;28;20052;-75
2022/05/07 05:44:39;;;;;;;19.13;11.25;;;12.40;99.90;;;;;;5270859;28;20089;-76
2022/05/07 05:47:10;;;;;;;19.75;11.48;;;12.40;99.90;;;;;;5270341;28;20478;-72
2022/05/07 05:49:41;;;;;;;18.83;10.88;;;12.50;99.90;;;;;;5269791;28;20024;-73
2022/05/07 05:52:11;;;;;;;20.98;11.02;;;12.30;99.90;;;;;;5270676;28;20039;-76
2022/05/07 05:54:42;;;;;;;22.15;11.70;;;12.50;99.90;;;;;;5269907;28;20020;-76
2022/05/07 05:57:13;;;;;;;18.33;10.63;;;12.40;99.90;;;;;;5269591;28;20154;-73
2022/05/07 05:59:44;;;;;;;15.63;9.93;;;12.50;99.90;;;;;;5270267;28;20020;-76
2022/05/07 06:02:18;;;;;;;19.58;10.13;;;12.50;99.90;;;;;;5270432;28;20043;-76
2022/05/07 06:04:48;;;;;;;17.98;10.20;;;12.80;99.90;;;;;;5270591;28;20462;-73
2022/05/07 06:07:19;;;;;;;15.55;9.77;;;12.70;99.90;;;;;;5268835;28;20107;-76
2022/05/07 06:09:50;;;;;;;19.92;10.63;;;12.70;99.90;;;;;;5270417;28;20370;-76
2022/05/07 06:12:21;;;;;;;18.60;9.40;;;13.00;99.90;;;;;;5270148;28;20452;-76
2022/05/07 06:14:54;;;;;;;17.70;9.65;;;12.90;99.90;;;;;;5267360;28;20118;-76
2022/05/07 06:17:28;;;;;;;16.88;9.77;;;13.10;99.90;;;;;;5268979;28;20024;-75
2022/05/07 06:19:59;;;;;;;17.20;10.10;;;13.00;99.90;;;;;;5267799;28;20110;-75
2022/05/07 06:22:38;;;;;;;15.40;9.65;;;13.30;99.90;;;;;;5270287;28;20095;-76
2022/05/07 06:28:12;;;;;;;13.85;8.02;;;13.60;99.90;;;;;;5269658;28;20497;-73
2022/05/07 06:30:47;;;;;;;14.85;7.70;;;13.50;99.90;;;;;;5269812;28;20032;-73
2022/05/07 06:33:21;;;;;;;15.88;8.27;;;13.60;99.90;;;;;;5268401;28;20031;-74
2022/05/07 06:35:52;;;;;;;19.63;8.77;;;14.20;99.90;;;;;;5268823;28;20022;-73
2022/05/07 06:38:23;;;;;;;16.15;6.95;;;14.50;99.90;;;;;;5269838;28;20031;-74
2022/05/07 06:40:56;;;;;;;15.70;7.13;;;14.10;99.90;;;;;;5268155;28;20040;-76
2022/05/07 06:43:28;;;;;;;14.27;7.43;;;14.10;99.90;;;;;;5269701;28;20028;-76
2022/05/07 06:45:59;;;;;;;17.67;7.13;;;14.90;99.90;;;;;;5267046;28;20446;-76
2022/05/07 06:48:30;;;;;;;14.75;6.78;;;15.00;99.90;;;;;;5251883;28;20028;-77
2022/05/07 06:51:01;;;;;;;12.40;6.78;;;14.90;99.90;;;;;;5249827;28;20448;-76
2022/05/07 06:53:32;;;;;;;12.60;6.47;;;15.20;99.90;;;;;;5264705;28;20024;-74
2022/05/07 06:56:03;;;;;;;12.02;6.53;;;15.30;99.90;;;;;;5269972;28;20468;-71
2022/05/07 06:58:37;;;;;;;12.25;6.03;;;15.20;99.90;;;;;;5269859;28;20028;-75
2022/05/07 07:01:08;;;;;;;11.20;6.57;;;15.20;99.90;;;;;;5268768;28;20020;-75
2022/05/07 07:03:39;;;;;;;10.30;6.22;;;14.50;99.90;;;;;;5269192;28;20047;-74
2022/05/07 07:06:10;;;;;;;15.68;6.32;;;14.40;99.90;;;;;;5269088;28;20375;-75
2022/05/07 07:08:42;;;;;;;11.55;5.47;;;15.00;99.90;;;;;;5269333;28;20008;-73
2022/05/07 07:11:12;;;;;;;8.88;5.57;;;15.00;99.90;;;;;;5267316;28;20063;-75
2022/05/07 07:13:43;;;;;;;12.25;5.50;;;15.10;99.90;;;;;;5268079;28;20052;-72
2022/05/07 07:16:14;;;;;;;11.82;6.25;;;15.30;99.90;;;;;;5267559;28;20492;-75
2022/05/07 07:18:45;;;;;;;13.35;6.03;;;16.00;99.90;;;;;;5269008;28;20032;-73
2022/05/07 07:21:16;;;;;;;15.38;5.75;;;15.80;99.90;;;;;;5269242;28;20400;-75
2022/05/07 07:23:48;;;;;;;10.82;5.72;;;16.10;99.90;;;;;;5268549;28;20032;-75
2022/05/07 07:26:19;;;;;;;7.18;4.40;;;16.10;99.90;;;;;;5269302;28;20016;-73
2022/05/07 07:28:49;;;;;;;9.23;5.13;;;16.00;99.90;;;;;;5268615;28;20024;-72
2022/05/07 07:31:20;;;;;;;10.60;4.30;;;16.20;99.90;;;;;;5266291;28;20081;-76
2022/05/07 07:33:51;;;;;;;9.10;5.18;;;16.20;99.90;;;;;;5268870;28;20436;-74
2022/05/07 07:36:22;;;;;;;7.97;4.10;;;16.00;99.90;;;;;;5269191;28;20013;-77
2022/05/07 07:38:53;;;;;;;7.90;4.47;;;16.00;99.90;;;;;;5268956;28;20482;-74
2022/05/07 07:41:24;;;;;;;11.25;4.25;;;16.00;99.90;;;;;;5267695;28;20113;-77
2022/05/07 07:43:55;;;;;;;8.00;4.15;;;16.30;99.90;;;;;;5268912;28;20051;-75
2022/05/07 07:49:15;;;;;;;11.73;5.72;;;15.60;99.90;;;;;;5268426;28;20085;-75
2022/05/07 07:51:46;;;;;;;11.38;5.80;;;15.90;99.90;;;;;;5268801;28;20076;-72
2022/05/07 07:54:17;;;;;;;8.35;4.63;;;16.30;99.90;;;;;;5268849;28;20024;-73
2022/05/07 07:56:48;;;;;;;8.05;4.60;;;16.40;99.90;;;;;;5268995;28;20039;-75
2022/05/07 07:59:19;;;;;;;9.93;4.57;;;16.60;99.90;;;;;;5266978;28;20446;-74
2022/05/07 08:01:49;;;;;;;7.85;3.50;;;16.30;99.90;;;;;;5268591;28;20024;-71
2022/05/07 08:04:22;;;;;;;8.45;3.83;;;16.30;99.90;;;;;;5268926;28;20024;-75
2022/05/07 08:12:32;;;;;;;9.27;5.63;;;17.90;99.90;;;;;;5268318;28;20499;-74
2022/05/07 08:15:03;;;;;;;7.70;3.03;;;17.00;99.90;;;;;;5265089;28;20024;-74
2022/05/07 08:17:34;;;;;;;8.60;3.08;;;16.90;99.90;;;;;;5267362;28;20027;-70
2022/05/07 08:20:09;;;;;;;7.78;3.50;;;16.90;99.90;;;;;;5272717;28;20016;-72
2022/05/07 08:22:40;;;;;;;8.10;2.67;;;16.90;99.90;;;;;;5272609;28;20020;-74
2022/05/07 08:25:10;;;;;;;4.88;2.70;;;17.10;99.90;;;;;;5272666;28;20047;-70
2022/05/07 08:27:41;;;;;;;12.68;3.55;;;17.40;99.90;;;;;;5270722;28;20031;-74
2022/05/07 08:30:13;;;;;;;13.15;3.33;;;17.00;99.90;;;;;;5271422;28;20032;-74
2022/05/07 08:32:44;;;;;;;29.98;3.95;;;17.10;99.90;;;;;;5272076;28;20085;-74
2022/05/07 08:35:15;;;;;;;5.03;2.78;;;17.40;99.90;;;;;;5272323;28;20016;-74
2022/05/07 08:37:46;;;;;;;8.40;2.67;;;17.50;99.90;;;;;;5271004;28;20031;-75
2022/05/07 08:40:19;;;;;;;6.00;2.30;;;17.30;99.90;;;;;;5270348;28;20028;-74
2022/05/07 08:42:49;;;;;;;2.53;1.95;;;17.40;99.90;;;;;;5269955;28;20044;-75
2022/05/07 08:45:21;;;;;;;7.82;3.33;;;17.20;99.90;;;;;;5271845;28;20486;-74
2022/05/07 08:47:53;;;;;;;3.72;2.30;;;17.00;99.90;;;;;;5271724;28;20095;-73
2022/05/07 08:50:24;;;;;;;6.18;2.97;;;17.50;99.90;;;;;;5271623;28;20027;-73
2022/05/07 08:52:55;;;;;;;5.00;2.50;;;17.90;99.90;;;;;;5264560;28;20040;-76
2022/05/07 08:55:26;;;;;;;4.35;2.53;;;17.80;99.90;;;;;;5250901;28;20375;-78
2022/05/07 08:57:57;;;;;;;7.43;2.17;;;17.10;99.90;;;;;;5250989;28;20032;-70
2022/05/07 09:00:29;;;;;;;7.10;2.00;;;17.20;99.90;;;;;;5262304;28;20020;-76
2022/05/07 09:03:02;;;;;;;5.95;2.10;;;17.40;99.90;;;;;;5268104;28;20150;-75
2022/05/07 09:05:37;;;;;;;6.70;2.40;;;17.30;99.90;;;;;;5268218;28;20454;-76
2022/05/07 09:08:11;;;;;;;3.97;1.80;;;17.50;99.90;;;;;;5271317;28;20047;-77
2022/05/07 09:10:42;;;;;;;4.72;1.98;;;17.70;99.90;;;;;;5271052;28;20060;-72
2022/05/07 09:13:18;;;;;;;4.18;1.90;;;17.40;99.90;;;;;;5270558;28;20104;-72
2022/05/07 09:15:54;;;;;;;4.85;1.80;;;17.80;99.90;;;;;;5271072;28;20047;-74
2022/05/07 09:18:27;;;;;;;4.70;2.03;;;17.50;99.90;;;;;;5269649;28;20032;-72
2022/05/07 09:21:15;;;;;;;4.25;1.85;;;17.50;99.90;;;;;;5271376;28;20035;-74
2022/05/07 09:23:58;;;;;;;8.77;2.15;;;17.70;99.90;;;;;;5265333;28;20032;-74
2022/05/07 09:26:40;;;;;;;7.05;1.60;;;17.60;99.90;;;;;;5261943;28;20047;-72
2022/05/07 09:29:14;;;;;;;3.17;1.70;;;17.70;99.90;;;;;;5271136;28;20025;-75
2022/05/07 09:31:46;;;;;;;3.17;1.52;;;17.30;99.90;;;;;;5271013;28;20067;-74
2022/05/07 09:37:17;;;;;;;5.65;1.45;;;17.80;99.90;;;;;;5269645;28;20418;-73
2022/05/07 09:39:49;;;;;;;4.90;1.50;;;18.00;99.90;;;;;;5270359;28;20040;-73
2022/05/07 09:42:22;;;;;;;4.03;2.00;;;18.30;99.90;;;;;;5270768;28;20071;-72
2022/05/07 09:44:52;;;;;;;7.28;1.90;;;17.60;99.90;;;;;;5267101;28;20028;-73
2022/05/07 09:47:23;;;;;;;4.13;2.22;;;18.20;99.90;;;;;;5270962;28;20135;-72
2022/05/07 09:58:23;;;;;;;6.05;2.55;;;17.90;99.90;;;;;;5269445;28;20050;-73
2022/05/07 10:01:07;;;;;;;4.72;2.20;;;18.00;99.90;;;;;;5265733;28;20040;-72
2022/05/07 10:04:05;;;;;;;5.05;1.90;;;17.80;99.90;;;;;;5264711;28;20457;-72
2022/05/07 10:06:42;;;;;;;5.32;1.83;;;18.10;99.90;;;;;;5268497;28;20036;-73
2022/05/07 10:09:40;;;;;;;4.05;1.70;;;18.00;99.90;;;;;;5267825;28;20020;-73
2022/05/07 10:12:20;;;;;;;6.18;1.80;;;18.00;99.90;;;;;;5269585;28;20371;-71
2022/05/07 10:14:50;;;;;;;4.32;1.40;;;17.80;99.90;;;;;;5270048;28;20044;-72
2022/05/07 10:17:21;;;;;;;5.35;1.92;;;18.10;99.90;;;;;;5269981;28;20048;-74
2022/05/07 10:20:09;;;;;;;7.57;1.63;;;17.80;99.90;;;;;;5269564;28;20035;-72
2022/05/07 10:22:40;;;;;;;5.68;1.55;;;18.10;99.90;;;;;;5269753;28;20070;-70
2022/05/07 10:25:13;;;;;;;3.60;1.50;;;17.70;99.90;;;;;;5269789;28;20059;-70
2022/05/07 10:27:45;;;;;;;6.70;2.28;;;17.60;99.90;;;;;;5269657;28;20379;-72
2022/05/07 10:30:22;;;;;;;4.40;1.63;;;17.70;99.90;;;;;;5269961;28;20020;-71
2022/05/07 10:33:04;;;;;;;6.38;1.38;;;17.80;99.90;;;;;;5269468;28;20105;-71
2022/05/07 10:35:54;;;;;;;5.35;1.73;;;18.20;99.90;;;;;;5268551;28;20035;-72
2022/05/07 10:38:45;;;;;;;4.45;1.30;;;17.60;99.90;;;;;;5249010;28;20025;-73
2022/05/07 10:41:16;;;;;;;2.42;1.30;;;17.30;99.90;;;;;;5261819;28;20036;-74
2022/05/07 10:43:56;;;;;;;5.25;1.55;;;18.00;99.90;;;;;;5269531;28;20436;-73
2022/05/07 10:46:46;;;;;;;2.40;1.42;;;17.90;99.90;;;;;;5264856;28;20534;-73
2022/05/07 10:49:18;;;;;;;4.65;1.40;;;18.00;99.90;;;;;;5268021;28;20052;-73
2022/05/07 10:51:51;;;;;;;7.85;1.33;;;18.00;99.90;;;;;;5268504;28;20401;-72
2022/05/07 10:54:24;;;;;;;3.30;1.27;;;17.60;99.90;;;;;;5265088;28;20498;-73
2022/05/07 10:56:58;;;;;;;4.97;1.77;;;18.40;99.90;;;;;;5269288;28;20391;-73
2022/05/07 10:59:29;;;;;;;7.63;1.45;;;17.60;99.90;;;;;;5269473;28;20043;-73
2022/05/07 11:02:09;;;;;;;5.47;1.73;;;18.20;99.90;;;;;;5269084;28;20027;-73
2022/05/07 11:04:44;;;;;;;3.92;1.60;;;18.20;99.90;;;;;;5268621;28;20111;-72
2022/05/07 11:07:26;;;;;;;2.78;1.27;;;18.30;99.90;;;;;;5269158;28;20038;-73
2022/05/07 11:09:57;;;;;;;3.58;1.75;;;18.60;99.90;;;;;;5269013;28;20023;-73
2022/05/07 11:12:28;;;;;;;6.22;2.10;;;16.70;99.90;;;;;;5268756;28;20417;-72
2022/05/07 11:14:58;;;;;;;7.15;1.58;;;17.60;99.90;;;;;;5268972;28;20081;-73
2022/05/07 11:17:35;;;;;;;4.50;1.77;;;17.10;99.90;;;;;;5268924;28;20039;-72
2022/05/07 11:20:06;;;;;;;3.65;1.40;;;17.40;99.90;;;;;;5269309;28;20439;-74
2022/05/07 11:22:39;;;;;;;9.48;3.70;;;17.80;99.90;;;;;;5260665;28;20059;-75
2022/05/07 11:25:10;;;;;;;5.78;1.70;;;17.10;99.90;;;;;;5265940;28;20051;-75
2022/05/07 11:27:41;;;;;;;5.32;2.10;;;17.10;99.90;;;;;;5267928;28;20028;-74
2022/05/07 11:30:15;;;;;;;3.38;1.52;;;17.40;99.90;;;;;;5265036;28;20027;-74
2022/05/07 11:32:45;;;;;;;5.05;1.27;;;17.10;99.90;;;;;;5262458;28;20503;-72
2022/05/07 11:35:16;;;;;;;5.10;1.52;;;16.80;99.90;;;;;;5267794;28;20107;-69
2022/05/07 11:37:47;;;;;;;4.80;2.03;;;16.30;99.90;;;;;;5265562;28;20549;-70
2022/05/07 11:40:29;;;;;;;5.75;1.55;;;16.30;99.90;;;;;;5260523;28;20468;-70
2022/05/07 11:45:49;;;;;;;5.17;1.37;;;17.10;99.90;;;;;;5266150;28;20039;-74
2022/05/07 11:48:25;;;;;;;7.43;1.17;;;17.20;99.90;;;;;;5266352;28;20281;-72
2022/05/07 11:50:59;;;;;;;4.85;1.70;;;16.90;99.90;;;;;;5266601;28;20030;-73
2022/05/07 11:53:36;;;;;;;8.75;1.20;;;16.70;99.90;;;;;;5251077;28;20070;-74
2022/05/07 11:56:11;;;;;;;6.18;1.20;;;17.10;99.90;;;;;;5271200;28;20024;-72
2022/05/07 11:58:45;;;;;;;6.05;1.40;;;17.10;99.90;;;;;;5272600;28;20023;-71
2022/05/07 12:01:28;;;;;;;2.38;1.20;;;16.90;99.90;;;;;;5263663;28;20028;-71
2022/05/07 12:04:09;;;;;;;7.63;1.27;;;17.50;99.90;;;;;;5269807;28;20119;-72
2022/05/07 12:06:39;;;;;;;4.13;1.50;;;17.40;99.90;;;;;;5272483;28;20020;-73
2022/05/07 12:09:15;;;;;;;4.82;1.65;;;17.10;99.90;;;;;;5272572;28;20028;-73
2022/05/07 12:11:46;;;;;;;4.45;1.80;;;17.00;99.90;;;;;;5281272;28;20237;-73
2022/05/07 12:14:16;;;;;;;8.55;1.60;;;16.90;99.90;;;;;;5270386;28;20115;-72
2022/05/07 12:19:38;;;;;;;6.30;1.60;;;17.40;99.90;;;;;;5281806;28;20117;-73
2022/05/07 12:30:37;;;;;;;8.13;1.88;;;16.80;99.90;;;;;;5282418;28;20105;-72
2022/05/07 12:33:08;;;;;;;6.10;2.00;;;17.20;99.90;;;;;;5271282;28;20036;-74
2022/05/07 12:35:39;;;;;;;8.05;1.63;;;17.50;99.90;;;;;;5272144;28;20020;-74
2022/05/07 12:38:10;;;;;;;6.72;1.92;;;17.30;99.90;;;;;;5272099;28;20034;-73
2022/05/07 12:40:41;;;;;;;7.38;2.33;;;16.60;99.90;;;;;;5271572;28;20085;-73
2022/05/07 12:43:12;;;;;;;6.00;1.85;;;17.20;99.90;;;;;;5271515;28;20056;-71
2022/05/07 12:45:43;;;;;;;4.95;1.90;;;16.80;99.90;;;;;;5271054;28;20111;-74
2022/05/07 12:48:14;;;;;;;4.22;2.10;;;16.70;99.90;;;;;;5268540;28;20039;-74
2022/05/07 12:50:46;;;;;;;4.30;1.92;;;16.60;99.90;;;;;;5262370;28;20027;-73
2022/05/07 12:53:17;;;;;;;6.85;2.75;;;16.10;99.90;;;;;;5271194;28;20059;-69
2022/05/07 12:55:48;;;;;;;6.38;2.25;;;17.40;99.90;;;;;;5271438;28;20055;-71
2022/05/07 12:58:19;;;;;;;5.80;1.73;;;16.70;99.90;;;;;;5271240;28;20584;-72
2022/05/07 13:00:49;;;;;;;3.72;1.90;;;16.60;99.90;;;;;;5270582;28;20024;-72
2022/05/07 13:03:20;;;;;;;7.78;2.55;;;16.90;99.90;;;;;;5270567;28;20028;-74
2022/05/07 13:05:51;;;;;;;8.18;2.50;;;16.40;99.90;;;;;;5271186;28;20119;-72
2022/05/07 13:08:22;;;;;;;7.07;2.30;;;16.40;99.90;;;;;;5271027;28;20526;-72
2022/05/07 13:10:53;;;;;;;6.15;2.35;;;16.20;99.90;;;;;;5270788;28;20089;-72
2022/05/07 13:13:24;;;;;;;8.50;2.67;;;17.40;99.90;;;;;;5271146;28;20035;-72
2022/05/07 13:15:55;;;;;;;7.75;2.40;;;16.60;99.90;;;;;;5271410;28;20035;-72
2022/05/07 13:18:26;;;;;;;5.93;2.40;;;16.90;99.90;;;;;;5267223;28;20036;-73
2022/05/07 13:20:57;;;;;;;9.38;2.85;;;16.70;99.90;;;;;;5271559;28;20032;-73
2022/05/07 13:23:28;;;;;;;9.80;2.80;;;16.80;99.90;;;;;;5271212;28;20107;-72
2022/05/07 13:25:59;;;;;;;5.97;2.65;;;17.80;99.90;;;;;;5271396;28;20032;-71
2022/05/07 13:28:31;;;;;;;6.85;2.35;;;16.80;99.90;;;;;;5270246;28;20498;-71
2022/05/07 13:31:02;;;;;;;13.88;2.58;;;16.60;99.90;;;;;;5270987;28;20032;-71
2022/05/07 13:33:33;;;;;;;9.75;2.70;;;15.90;99.90;;;;;;5270347;28;20036;-72
2022/05/07 13:36:04;;;;;;;8.32;2.90;;;15.60;99.90;;;;;;5271110;28;20024;-72
2022/05/07 13:38:36;;;;;;;8.80;3.13;;;15.80;99.90;;;;;;5270889;28;20023;-72
2022/05/07 13:41:07;;;;;;;9.07;2.50;;;15.40;99.90;;;;;;5270598;28;20138;-72
2022/05/07 13:43:38;;;;;;;7.80;2.95;;;15.60;99.90;;;;;;5270260;28;20593;-72
2022/05/07 13:46:14;;;;;;;9.43;3.05;;;15.90;99.90;;;;;;5270243;28;20371;-72
2022/05/07 13:48:45;;;;;;;8.23;2.50;;;16.00;99.90;;;;;;5250039;28;20028;-72
2022/05/07 13:51:18;;;;;;;5.88;2.22;;;16.80;99.90;;;;;;5267921;28;20043;-72
2022/05/07 13:53:49;;;;;;;9.35;2.00;;;16.30;99.90;;;;;;5270717;28;20024;-71
2022/05/07 13:56:21;;;;;;;27.77;4.97;;;15.70;99.90;;;;;;5270429;28;20107;-72
2022/05/07 13:58:52;;;;;;;8.98;2.22;;;16.50;99.90;;;;;;5270148;28;20036;-72
2022/05/07 14:01:24;;;;;;;4.43;2.20;;;15.90;99.90;;;;;;5270670;28;20020;-72
2022/05/07 14:03:55;;;;;;;6.25;2.40;;;16.00;99.90;;;;;;5270143;28;20788;-73
2022/05/07 14:06:26;;;;;;;8.25;2.10;;;15.60;99.90;;;;;;5270646;28;20447;-73
2022/05/07 14:08:57;;;;;;;4.20;2.17;;;16.30;99.90;;;;;;5270477;28;20028;-73